Time;durP1;ratioP1;P1;durP2;ratioP2;P2;SDS_P1;SDS_P2;PMS_P1;PMS_P2;Temp;Humidity;BMP_temperature;BMP_pressure;BME280_temperature;BME280_humidity;BME280_pressure;Samples;Min_cycle;Max_cycle;Signal;HPM_P1;HPM_P2
2022/06/27 00:01:29;;;;;;;7.60;6.82;;;21.20;99.90;;;;;;5050300;28;20017;-49
2022/06/27 00:03:55;;;;;;;8.50;7.43;;;21.10;99.90;;;;;;5050002;28;20028;-49
2022/06/27 00:06:21;;;;;;;7.38;6.57;;;21.10;99.90;;;;;;5049835;28;20029;-47
2022/06/27 00:08:48;;;;;;;9.18;6.38;;;21.10;99.90;;;;;;5049675;28;20056;-51
2022/06/27 00:11:14;;;;;;;6.53;5.93;;;21.00;99.90;;;;;;5049457;28;20024;-48
2022/06/27 00:13:39;;;;;;;8.30;6.82;;;21.00;99.90;;;;;;5050068;28;20024;-49
2022/06/27 00:16:05;;;;;;;9.70;6.90;;;21.00;99.90;;;;;;5049278;28;20562;-51
2022/06/27 00:18:31;;;;;;;7.60;6.80;;;20.90;99.90;;;;;;5049721;28;20021;-50
2022/06/27 00:20:56;;;;;;;8.43;6.93;;;20.90;99.90;;;;;;5049648;28;20029;-50
2022/06/27 00:23:22;;;;;;;10.23;7.32;;;20.90;99.90;;;;;;5039606;28;20032;-46
2022/06/27 00:25:47;;;;;;;9.43;7.05;;;20.90;99.90;;;;;;5048151;28;20063;-50
2022/06/27 00:28:13;;;;;;;8.48;7.55;;;20.90;99.90;;;;;;5049403;28;20037;-52
2022/06/27 00:30:39;;;;;;;7.97;7.10;;;20.90;99.90;;;;;;5049606;28;20029;-48
2022/06/27 00:33:05;;;;;;;8.60;7.80;;;20.90;99.90;;;;;;5041787;28;20017;-48
2022/06/27 00:35:30;;;;;;;9.48;7.47;;;20.90;99.90;;;;;;5044822;28;20047;-48
2022/06/27 00:37:56;;;;;;;9.25;7.82;;;20.90;99.90;;;;;;5049086;28;20021;-48
2022/06/27 00:40:21;;;;;;;9.00;7.60;;;20.90;99.90;;;;;;5049569;28;20196;-49
2022/06/27 00:42:47;;;;;;;8.70;7.88;;;20.90;99.90;;;;;;5049522;28;20049;-46
2022/06/27 00:45:13;;;;;;;8.23;7.43;;;20.90;99.90;;;;;;5048533;28;20596;-48
2022/06/27 00:47:38;;;;;;;8.00;7.20;;;20.80;99.90;;;;;;5049358;28;20032;-47
2022/06/27 00:50:05;;;;;;;8.90;8.00;;;20.70;99.90;;;;;;5048854;28;20043;-48
2022/06/27 00:52:30;;;;;;;8.88;7.97;;;20.70;99.90;;;;;;5048700;28;20305;-51
2022/06/27 00:54:56;;;;;;;8.93;8.02;;;20.70;99.90;;;;;;5048356;28;20457;-48
2022/06/27 00:57:21;;;;;;;8.65;7.78;;;20.70;99.90;;;;;;5047661;28;20031;-48
2022/06/27 00:59:48;;;;;;;9.10;8.20;;;20.60;99.90;;;;;;5048926;28;20044;-48
2022/06/27 01:02:13;;;;;;;9.85;7.82;;;20.60;99.90;;;;;;5046570;28;20058;-50
2022/06/27 01:04:39;;;;;;;9.32;7.82;;;20.60;99.90;;;;;;5039204;28;20029;-49
2022/06/27 01:07:07;;;;;;;9.02;7.93;;;20.60;99.90;;;;;;5047031;28;20131;-48
2022/06/27 01:09:33;;;;;;;8.80;7.97;;;20.60;99.90;;;;;;5048094;28;20029;-49
2022/06/27 01:11:58;;;;;;;8.60;7.80;;;20.50;99.90;;;;;;5048280;28;20426;-47
2022/06/27 01:14:24;;;;;;;9.43;8.52;;;20.50;99.90;;;;;;5047503;28;20020;-48
2022/06/27 01:16:50;;;;;;;8.50;7.78;;;20.40;99.90;;;;;;5048201;28;20413;-49
2022/06/27 01:19:17;;;;;;;9.70;8.57;;;20.40;99.90;;;;;;5048231;28;20029;-49
2022/06/27 01:21:48;;;;;;;11.55;8.73;;;20.40;99.90;;;;;;5047827;28;20222;-48
2022/06/27 01:24:15;;;;;;;9.00;8.10;;;20.40;99.90;;;;;;5046369;28;20040;-47
2022/06/27 01:26:43;;;;;;;9.90;8.70;;;20.40;99.90;;;;;;5047782;28;20021;-51
2022/06/27 01:29:09;;;;;;;9.25;8.38;;;20.40;99.90;;;;;;5048032;28;20021;-48
2022/06/27 01:31:36;;;;;;;10.00;8.93;;;20.30;99.90;;;;;;5045978;28;20032;-49
2022/06/27 01:34:02;;;;;;;8.80;7.90;;;20.30;99.90;;;;;;5036500;28;20390;-46
2022/06/27 01:36:43;;;;;;;9.13;8.23;;;20.30;99.90;;;;;;5044347;28;20030;-51
2022/06/27 01:39:24;;;;;;;9.73;8.80;;;20.30;99.90;;;;;;5047710;28;20152;-48
2022/06/27 01:41:52;;;;;;;9.10;8.20;;;20.30;99.90;;;;;;5047625;28;20083;-47
2022/06/27 01:44:20;;;;;;;11.90;9.02;;;20.30;99.90;;;;;;5045733;28;20025;-47
2022/06/27 01:47:00;;;;;;;9.57;8.68;;;20.30;99.90;;;;;;5047477;28;20104;-48
2022/06/27 01:49:30;;;;;;;8.82;7.95;;;20.30;99.90;;;;;;5048072;28;20083;-48
2022/06/27 01:51:58;;;;;;;9.77;8.38;;;20.20;99.90;;;;;;5048450;28;20025;-46
2022/06/27 01:54:25;;;;;;;10.85;8.38;;;20.20;99.90;;;;;;5047492;28;20029;-48
2022/06/27 01:56:51;;;;;;;9.18;8.30;;;20.10;99.90;;;;;;5048238;28;20029;-47
2022/06/27 01:59:21;;;;;;;9.02;8.23;;;20.10;99.90;;;;;;5048143;28;20047;-46
2022/06/27 02:01:46;;;;;;;9.30;8.32;;;20.10;99.90;;;;;;5048160;28;20670;-46
2022/06/27 02:04:14;;;;;;;10.27;9.07;;;20.10;99.90;;;;;;5036278;28;20029;-47
2022/06/27 02:06:42;;;;;;;11.27;9.65;;;20.00;99.90;;;;;;5046162;28;20029;-47
2022/06/27 02:09:10;;;;;;;10.73;9.73;;;20.00;99.90;;;;;;5047764;28;20060;-48
2022/06/27 02:11:36;;;;;;;13.50;10.45;;;19.90;99.90;;;;;;5047868;28;20037;-49
2022/06/27 02:14:02;;;;;;;13.07;10.35;;;19.90;99.90;;;;;;5047330;28;20048;-47
2022/06/27 02:16:28;;;;;;;12.30;11.02;;;19.90;99.90;;;;;;5048065;28;20467;-47
2022/06/27 02:18:54;;;;;;;11.35;10.13;;;19.80;99.90;;;;;;5046113;28;20025;-47
2022/06/27 02:21:25;;;;;;;11.52;10.27;;;19.80;99.90;;;;;;5038312;28;20454;-47
2022/06/27 02:23:52;;;;;;;13.90;10.38;;;19.80;99.90;;;;;;5047624;28;20036;-48
2022/06/27 02:26:23;;;;;;;11.52;9.68;;;19.80;99.90;;;;;;5047356;28;20514;-47
2022/06/27 02:28:50;;;;;;;13.10;10.75;;;19.70;99.90;;;;;;5048044;28;20021;-49
2022/06/27 02:31:15;;;;;;;14.60;11.18;;;19.70;99.90;;;;;;5047891;28;20275;-47
2022/06/27 02:33:44;;;;;;;13.60;11.13;;;19.60;99.90;;;;;;5048214;28;20148;-48
2022/06/27 02:36:14;;;;;;;11.50;10.30;;;19.60;99.90;;;;;;5049744;28;20021;-47
2022/06/27 02:38:41;;;;;;;13.50;11.95;;;19.60;99.90;;;;;;5050238;28;20025;-47
2022/06/27 02:41:10;;;;;;;12.68;10.73;;;19.60;99.90;;;;;;5051551;28;20033;-47
2022/06/27 02:43:38;;;;;;;11.80;10.70;;;19.60;99.90;;;;;;5051473;28;20044;-47
2022/06/27 02:46:04;;;;;;;11.48;10.38;;;19.60;99.90;;;;;;5051042;28;20056;-47
2022/06/27 02:48:32;;;;;;;13.90;11.73;;;19.50;99.90;;;;;;5049671;28;20057;-47
2022/06/27 02:51:04;;;;;;;14.52;11.38;;;19.50;99.90;;;;;;5043364;28;20021;-47
2022/06/27 02:53:39;;;;;;;17.08;11.60;;;19.50;99.90;;;;;;5051250;28;20017;-47
2022/06/27 02:56:09;;;;;;;12.88;11.65;;;19.50;99.90;;;;;;5027506;28;20228;-47
2022/06/27 02:58:42;;;;;;;11.77;10.57;;;19.40;99.90;;;;;;5031875;28;20037;-47
2022/06/27 03:01:12;;;;;;;13.05;11.63;;;19.40;99.90;;;;;;5031701;28;20113;-46
2022/06/27 03:03:41;;;;;;;14.93;11.90;;;19.40;99.90;;;;;;5031570;28;20112;-49
2022/06/27 03:06:07;;;;;;;11.93;10.73;;;19.40;99.90;;;;;;5022422;28;20470;-49
2022/06/27 03:08:40;;;;;;;15.45;11.57;;;19.40;99.90;;;;;;5021710;28;20276;-47
2022/06/27 03:11:06;;;;;;;15.90;12.93;;;19.40;99.90;;;;;;5021328;28;20026;-47
2022/06/27 03:13:32;;;;;;;11.73;10.50;;;19.40;99.90;;;;;;5034955;28;20014;-47
2022/06/27 03:15:58;;;;;;;12.85;11.02;;;19.30;99.90;;;;;;5016062;28;20036;-47
2022/06/27 03:18:23;;;;;;;11.90;10.73;;;19.30;99.90;;;;;;5016273;28;20037;-49
2022/06/27 03:20:49;;;;;;;11.13;10.13;;;19.30;99.90;;;;;;5036514;28;20029;-48
2022/06/27 03:23:15;;;;;;;12.07;10.82;;;19.30;99.90;;;;;;5022239;28;20053;-48
2022/06/27 03:25:41;;;;;;;13.07;11.15;;;19.30;99.90;;;;;;5038950;28;20029;-47
2022/06/27 03:28:07;;;;;;;11.63;10.43;;;19.30;99.90;;;;;;5030837;28;20489;-47
2022/06/27 03:30:33;;;;;;;12.23;10.70;;;19.30;99.90;;;;;;5030804;28;20032;-47
2022/06/27 03:32:58;;;;;;;11.73;10.52;;;19.30;99.90;;;;;;5030741;28;20025;-48
2022/06/27 03:35:24;;;;;;;10.85;9.85;;;19.30;99.90;;;;;;5030194;28;20041;-49
2022/06/27 03:37:50;;;;;;;11.75;10.70;;;19.30;99.90;;;;;;5030522;28;20072;-46
2022/06/27 03:40:15;;;;;;;11.20;10.10;;;19.30;99.90;;;;;;5030760;28;20057;-46
2022/06/27 03:42:41;;;;;;;12.50;11.32;;;19.30;99.90;;;;;;5025686;28;20029;-45
2022/06/27 03:45:07;;;;;;;16.92;10.63;;;19.20;99.90;;;;;;5024832;28;20484;-46
2022/06/27 03:47:43;;;;;;;10.25;9.30;;;19.30;99.90;;;;;;5046053;28;20070;-46
2022/06/27 03:50:09;;;;;;;11.98;10.77;;;19.30;99.90;;;;;;5043043;28;20081;-47
2022/06/27 03:52:35;;;;;;;12.70;10.63;;;19.30;99.90;;;;;;5039870;28;20025;-46
2022/06/27 03:55:00;;;;;;;14.13;10.60;;;19.30;99.90;;;;;;5026933;28;20470;-47
2022/06/27 03:57:26;;;;;;;11.35;10.25;;;19.40;99.90;;;;;;5028194;28;20064;-47
2022/06/27 03:59:53;;;;;;;11.88;10.23;;;19.40;99.90;;;;;;5029708;28;20061;-46
2022/06/27 04:02:19;;;;;;;11.18;10.10;;;19.40;99.90;;;;;;5029315;28;20187;-47
2022/06/27 04:04:44;;;;;;;10.48;9.40;;;19.40;99.90;;;;;;5030794;28;20048;-48
2022/06/27 04:07:10;;;;;;;15.02;10.13;;;19.50;99.90;;;;;;5031789;28;20119;-49
2022/06/27 04:09:35;;;;;;;9.73;8.82;;;19.50;99.90;;;;;;5031392;28;20029;-47
2022/06/27 04:12:01;;;;;;;10.85;9.68;;;19.60;99.90;;;;;;5031587;28;20119;-48
2022/06/27 04:14:27;;;;;;;9.60;8.55;;;19.60;99.90;;;;;;5031094;28;20029;-48
2022/06/27 04:16:52;;;;;;;10.45;9.40;;;19.60;99.90;;;;;;5030454;28;20029;-48
2022/06/27 04:19:18;;;;;;;11.80;9.07;;;19.70;99.90;;;;;;5037823;28;20407;-48
2022/06/27 04:21:44;;;;;;;10.43;8.93;;;19.80;99.90;;;;;;5050192;28;20398;-50
2022/06/27 04:24:09;;;;;;;9.52;8.50;;;19.80;99.90;;;;;;5050528;28;20028;-48
2022/06/27 04:26:35;;;;;;;10.48;9.38;;;19.80;99.90;;;;;;5050008;28;20021;-48
2022/06/27 04:29:01;;;;;;;11.00;8.15;;;19.80;99.90;;;;;;5051226;28;20028;-47
2022/06/27 04:31:26;;;;;;;8.63;7.47;;;19.80;99.90;;;;;;5051096;28;20013;-48
2022/06/27 04:33:52;;;;;;;9.05;8.00;;;19.80;99.90;;;;;;5047075;28;20028;-51
2022/06/27 04:36:17;;;;;;;9.75;8.40;;;19.80;99.90;;;;;;5038966;28;20049;-49
2022/06/27 04:38:43;;;;;;;8.65;7.75;;;19.80;99.90;;;;;;5049304;28;20033;-47
2022/06/27 04:41:09;;;;;;;12.65;9.10;;;19.80;99.90;;;;;;5050832;28;20456;-47
2022/06/27 04:43:34;;;;;;;10.35;7.95;;;19.80;99.90;;;;;;5049384;28;20124;-50
2022/06/27 04:46:02;;;;;;;9.93;8.93;;;19.80;99.90;;;;;;5050104;28;20043;-48
2022/06/27 04:48:29;;;;;;;10.93;8.05;;;19.80;99.90;;;;;;5050590;28;20036;-47
2022/06/27 04:50:56;;;;;;;9.63;7.90;;;19.80;99.90;;;;;;5050696;28;20019;-48
2022/06/27 04:53:21;;;;;;;10.68;8.20;;;19.90;99.90;;;;;;5050224;28;20028;-50
2022/06/27 04:55:47;;;;;;;9.38;7.55;;;19.90;99.90;;;;;;5048379;28;20025;-49
2022/06/27 04:58:12;;;;;;;8.82;7.53;;;19.90;99.90;;;;;;5050571;28;20059;-50
2022/06/27 05:00:38;;;;;;;9.95;9.00;;;20.00;99.90;;;;;;5050422;28;20021;-48
2022/06/27 05:03:04;;;;;;;12.55;8.38;;;20.10;99.90;;;;;;5050668;28;20052;-48
2022/06/27 05:05:29;;;;;;;9.75;7.53;;;20.10;99.90;;;;;;5041389;28;20473;-48
2022/06/27 05:07:57;;;;;;;10.77;7.13;;;20.10;99.90;;;;;;5028291;28;20021;-49
2022/06/27 05:10:22;;;;;;;9.75;8.48;;;20.20;99.90;;;;;;5023012;28;20068;-48
2022/06/27 05:12:48;;;;;;;10.45;8.73;;;20.30;99.90;;;;;;5030375;28;20057;-47
2022/06/27 05:15:14;;;;;;;8.75;7.80;;;20.40;99.90;;;;;;5029755;28;20041;-48
2022/06/27 05:17:42;;;;;;;7.90;7.10;;;20.40;99.90;;;;;;5028891;28;20025;-50
2022/06/27 05:20:08;;;;;;;11.40;7.95;;;20.50;99.90;;;;;;5029529;28;20059;-48
2022/06/27 05:22:33;;;;;;;9.95;8.18;;;20.70;99.90;;;;;;5030161;28;20513;-48
2022/06/27 05:24:59;;;;;;;7.32;6.63;;;20.70;99.90;;;;;;5029411;28;20105;-47
2022/06/27 05:27:25;;;;;;;11.65;7.50;;;20.80;99.90;;;;;;5030125;28;20029;-50
2022/06/27 05:29:50;;;;;;;11.10;8.63;;;20.80;99.90;;;;;;5030013;28;20017;-49
2022/06/27 05:32:16;;;;;;;12.77;7.97;;;20.80;99.90;;;;;;5029661;28;20517;-48
2022/06/27 05:34:41;;;;;;;10.90;7.50;;;20.80;99.90;;;;;;5029727;28;20028;-49
2022/06/27 05:37:08;;;;;;;8.50;6.55;;;20.90;99.90;;;;;;5037565;28;20048;-51
2022/06/27 05:39:34;;;;;;;8.38;7.53;;;20.90;99.90;;;;;;5025110;28;20120;-49
2022/06/27 05:42:01;;;;;;;8.65;7.15;;;21.00;99.90;;;;;;5033656;28;20111;-48
2022/06/27 05:44:27;;;;;;;11.10;7.25;;;21.00;99.90;;;;;;5030495;28;20025;-50
2022/06/27 05:46:55;;;;;;;10.45;7.07;;;21.10;99.90;;;;;;5037292;28;20106;-50
2022/06/27 05:49:21;;;;;;;8.05;7.00;;;21.20;99.90;;;;;;5038452;28;20025;-48
2022/06/27 05:51:46;;;;;;;7.95;6.80;;;21.40;99.90;;;;;;5036509;28;20024;-48
2022/06/27 05:54:12;;;;;;;7.00;6.30;;;21.50;99.90;;;;;;5034340;28;20467;-48
2022/06/27 05:56:39;;;;;;;7.95;6.53;;;21.60;99.90;;;;;;5028398;28;20022;-51
2022/06/27 05:59:06;;;;;;;7.93;7.10;;;21.60;99.90;;;;;;5027397;28;20528;-48
2022/06/27 06:01:31;;;;;;;10.63;6.82;;;21.70;99.90;;;;;;5036458;28;20029;-47
2022/06/27 06:03:57;;;;;;;8.95;7.28;;;21.70;99.90;;;;;;5042364;28;20034;-48
2022/06/27 06:06:25;;;;;;;6.97;6.30;;;21.70;99.90;;;;;;5021313;28;20132;-48
2022/06/27 06:08:53;;;;;;;9.63;7.55;;;21.70;99.90;;;;;;5033139;28;20025;-48
2022/06/27 06:11:19;;;;;;;8.82;7.25;;;21.80;99.90;;;;;;5040439;28;20411;-48
2022/06/27 06:13:44;;;;;;;7.95;7.15;;;21.80;99.90;;;;;;5034523;28;20030;-48
2022/06/27 06:16:10;;;;;;;8.10;7.30;;;21.80;99.90;;;;;;5025424;28;20097;-48
2022/06/27 06:18:37;;;;;;;8.65;7.20;;;21.80;99.90;;;;;;5038186;28;20032;-50
2022/06/27 06:21:03;;;;;;;7.30;6.60;;;21.90;99.90;;;;;;5040399;28;20394;-48
2022/06/27 06:23:31;;;;;;;9.35;6.85;;;21.90;99.90;;;;;;5032969;28;20505;-48
2022/06/27 06:25:58;;;;;;;7.75;7.00;;;22.00;99.90;;;;;;5032734;28;20033;-48
2022/06/27 06:28:24;;;;;;;10.38;6.78;;;22.00;99.90;;;;;;5032680;28;20022;-47
2022/06/27 06:30:49;;;;;;;8.98;6.93;;;22.00;99.90;;;;;;5039636;28;20029;-48
2022/06/27 06:33:15;;;;;;;7.72;6.97;;;22.10;99.90;;;;;;5038583;28;20561;-47
2022/06/27 06:35:40;;;;;;;7.55;6.85;;;22.10;99.90;;;;;;5029531;28;20040;-48
2022/06/27 06:38:06;;;;;;;8.35;7.53;;;22.20;99.90;;;;;;5031228;28;20021;-45
2022/06/27 06:40:32;;;;;;;7.50;6.80;;;22.20;99.90;;;;;;5018247;28;20021;-47
2022/06/27 06:43:01;;;;;;;8.48;7.05;;;22.20;99.90;;;;;;5041859;28;20025;-51
2022/06/27 06:45:27;;;;;;;7.95;6.93;;;22.20;99.90;;;;;;5030674;28;20045;-47
2022/06/27 06:47:52;;;;;;;7.65;6.95;;;22.20;99.90;;;;;;5029726;28;20060;-49
2022/06/27 06:50:21;;;;;;;12.07;8.45;;;22.20;99.90;;;;;;5042138;28;20393;-47
2022/06/27 06:52:51;;;;;;;8.25;7.40;;;22.20;99.90;;;;;;5036324;28;20299;-48
2022/06/27 06:55:21;;;;;;;10.40;7.47;;;22.20;99.90;;;;;;5024849;28;20549;-48
2022/06/27 06:57:47;;;;;;;8.15;7.38;;;22.20;99.90;;;;;;5018101;28;20112;-47
2022/06/27 07:00:13;;;;;;;7.78;6.97;;;22.30;99.90;;;;;;5028554;28;20038;-48
2022/06/27 07:02:38;;;;;;;7.93;7.22;;;22.40;99.90;;;;;;5044738;28;20039;-48
2022/06/27 07:05:08;;;;;;;7.97;7.28;;;22.40;99.90;;;;;;5030234;28;20034;-48
2022/06/27 07:07:34;;;;;;;7.50;6.60;;;22.40;99.90;;;;;;5031553;28;20026;-48
2022/06/27 07:10:00;;;;;;;9.27;7.88;;;22.50;99.90;;;;;;5029745;28;20501;-47
2022/06/27 07:12:26;;;;;;;9.15;7.65;;;22.60;99.90;;;;;;5020423;28;20640;-48
2022/06/27 07:14:54;;;;;;;8.93;8.02;;;22.70;99.90;;;;;;5019637;28;20063;-48
2022/06/27 07:17:27;;;;;;;9.00;7.57;;;22.70;99.90;;;;;;5025679;28;20006;-48
2022/06/27 07:19:53;;;;;;;9.15;7.25;;;22.90;99.90;;;;;;5026153;28;20457;-48
2022/06/27 07:22:20;;;;;;;8.48;7.63;;;23.00;99.90;;;;;;5025145;28;20530;-48
2022/06/27 07:24:47;;;;;;;8.65;7.85;;;23.30;99.90;;;;;;5023941;28;20438;-51
2022/06/27 07:27:15;;;;;;;7.65;6.95;;;23.50;99.90;;;;;;5032377;28;20033;-48
2022/06/27 07:29:41;;;;;;;7.50;6.80;;;23.60;99.90;;;;;;5020482;28;20018;-50
2022/06/27 07:32:08;;;;;;;7.40;6.70;;;23.70;99.90;;;;;;5019339;28;20357;-47
2022/06/27 07:34:37;;;;;;;11.23;8.23;;;23.90;99.90;;;;;;5019580;28;20030;-48
2022/06/27 07:37:03;;;;;;;9.35;7.28;;;23.80;99.90;;;;;;5021934;28;20036;-49
2022/06/27 07:39:28;;;;;;;9.73;7.20;;;23.70;99.90;;;;;;5022256;28;20390;-49
2022/06/27 07:41:54;;;;;;;7.72;6.95;;;23.90;99.90;;;;;;5018921;28;20034;-48
2022/06/27 07:44:22;;;;;;;9.57;7.53;;;24.10;99.90;;;;;;5020752;28;20029;-49
2022/06/27 07:46:47;;;;;;;8.57;7.68;;;24.10;99.90;;;;;;5019104;28;20026;-47
2022/06/27 07:49:13;;;;;;;8.38;7.57;;;24.20;99.90;;;;;;5034203;28;20021;-49
2022/06/27 07:51:38;;;;;;;11.40;7.82;;;24.20;99.90;;;;;;5027134;28;20026;-48
2022/06/27 07:54:04;;;;;;;10.43;7.75;;;24.20;99.90;;;;;;5020085;28;20030;-48
2022/06/27 07:56:29;;;;;;;10.88;7.55;;;24.30;99.90;;;;;;5023003;28;20029;-48
2022/06/27 07:58:55;;;;;;;9.23;8.05;;;24.40;99.90;;;;;;5021024;28;20084;-49
2022/06/27 08:01:21;;;;;;;8.93;8.02;;;24.40;99.90;;;;;;5018704;28;20568;-47
2022/06/27 08:03:48;;;;;;;9.48;8.52;;;24.40;99.90;;;;;;5019950;28;20104;-50
2022/06/27 08:06:25;;;;;;;8.73;7.88;;;24.40;99.90;;;;;;5019709;28;20087;-49
2022/06/27 08:08:54;;;;;;;8.70;7.82;;;24.40;99.90;;;;;;5034191;28;20029;-47
2022/06/27 08:11:23;;;;;;;7.70;7.00;;;24.50;99.90;;;;;;5020337;28;20533;-49
2022/06/27 08:13:50;;;;;;;9.77;8.70;;;24.50;99.90;;;;;;5019056;28;20030;-49
2022/06/27 08:16:18;;;;;;;9.40;8.48;;;24.80;99.90;;;;;;5019951;28;20022;-48
2022/06/27 08:18:47;;;;;;;13.57;9.10;;;25.20;99.90;;;;;;5030504;28;20047;-49
2022/06/27 08:21:13;;;;;;;13.35;7.55;;;25.90;99.90;;;;;;5026784;28;20077;-48
2022/06/27 08:23:39;;;;;;;10.70;6.57;;;26.70;99.90;;;;;;5017560;28;20440;-49
2022/06/27 08:26:07;;;;;;;7.32;6.03;;;27.50;99.90;;;;;;5019801;28;20084;-47
2022/06/27 08:28:35;;;;;;;6.80;6.05;;;28.40;99.90;;;;;;5021137;28;20231;-48
2022/06/27 08:31:02;;;;;;;7.38;6.68;;;28.40;98.70;;;;;;5019659;28;20026;-48
2022/06/27 08:33:30;;;;;;;9.20;6.85;;;28.30;98.50;;;;;;5018977;28;20264;-49
2022/06/27 08:35:57;;;;;;;6.95;5.60;;;28.00;97.40;;;;;;5019581;28;20495;-48
2022/06/27 08:38:23;;;;;;;6.75;5.90;;;27.50;98.40;;;;;;5031482;28;20083;-49
2022/06/27 08:40:50;;;;;;;8.30;6.50;;;27.30;98.80;;;;;;5025450;28;20014;-49
2022/06/27 08:43:17;;;;;;;9.32;7.45;;;27.10;99.10;;;;;;5020062;28;20096;-50
2022/06/27 08:45:48;;;;;;;9.35;7.38;;;26.80;98.70;;;;;;5020134;28;20548;-50
2022/06/27 08:48:14;;;;;;;7.85;7.03;;;26.50;99.20;;;;;;5024753;28;20076;-49
2022/06/27 08:50:41;;;;;;;7.47;6.78;;;26.10;99.90;;;;;;5033012;28;20021;-47
2022/06/27 08:53:07;;;;;;;7.68;6.97;;;25.90;99.90;;;;;;5017761;28;20487;-48
2022/06/27 08:55:35;;;;;;;9.20;8.07;;;25.90;99.90;;;;;;5019906;28;20498;-47
2022/06/27 08:58:04;;;;;;;12.05;6.53;;;26.40;99.90;;;;;;5020792;28;20501;-48
2022/06/27 09:00:31;;;;;;;8.77;6.83;;;27.20;99.90;;;;;;5019805;28;20461;-50
2022/06/27 09:02:57;;;;;;;7.85;5.90;;;28.60;97.40;;;;;;5022644;28;20286;-48
2022/06/27 09:05:27;;;;;;;5.57;5.03;;;30.40;95.50;;;;;;5029752;28;20083;-47
2022/06/27 09:07:55;;;;;;;7.13;4.57;;;32.00;92.30;;;;;;5029810;28;20143;-47
2022/06/27 09:10:39;;;;;;;5.32;4.60;;;32.80;90.40;;;;;;5025734;28;20049;-49
2022/06/27 09:13:12;;;;;;;5.45;4.90;;;34.00;84.10;;;;;;5022756;28;20054;-47
2022/06/27 09:15:37;;;;;;;6.82;4.85;;;34.70;80.90;;;;;;5018684;28;20369;-49
2022/06/27 09:18:06;;;;;;;5.20;4.70;;;34.80;77.10;;;;;;5023076;28;20055;-48
2022/06/27 09:20:55;;;;;;;6.28;4.10;;;35.50;74.80;;;;;;5027509;28;20578;-49
2022/06/27 09:23:40;;;;;;;5.93;4.75;;;35.50;73.10;;;;;;5027146;28;20057;-49
2022/06/27 09:26:09;;;;;;;6.35;4.65;;;35.30;72.50;;;;;;5021436;28;20924;-48
2022/06/27 09:28:44;;;;;;;4.50;4.10;;;35.80;70.50;;;;;;5020076;28;20026;-49
2022/06/27 09:31:13;;;;;;;4.63;4.22;;;36.70;68.90;;;;;;5017031;28;20018;-49
2022/06/27 09:33:40;;;;;;;5.35;3.88;;;36.70;67.70;;;;;;5024095;28;20503;-47
2022/06/27 09:36:14;;;;;;;6.10;3.95;;;36.50;67.40;;;;;;5017677;28;20113;-50
2022/06/27 09:38:40;;;;;;;5.13;3.78;;;37.00;66.10;;;;;;5032473;28;20446;-49
2022/06/27 09:41:12;;;;;;;5.80;4.10;;;37.40;66.20;;;;;;5033066;28;21010;-48
2022/06/27 09:43:45;;;;;;;8.45;3.63;;;37.80;63.90;;;;;;5022803;28;20059;-49
2022/06/27 09:46:13;;;;;;;8.43;4.35;;;38.30;63.10;;;;;;5018618;28;20017;-49
2022/06/27 09:48:42;;;;;;;5.70;3.50;;;38.30;60.90;;;;;;5017135;28;20495;-49
2022/06/27 09:51:08;;;;;;;;;;;38.30;60.00;;;;;;5019737;28;20475;-48
2022/06/27 09:53:34;;;;;;;5.05;4.32;;;38.10;60.10;;;;;;5017922;28;19988;-49
2022/06/27 09:56:01;;;;;;;6.05;3.05;;;37.60;59.40;;;;;;5017714;28;20113;-48
2022/06/27 09:58:27;;;;;;;4.55;3.28;;;37.00;60.20;;;;;;5019518;28;20025;-49
2022/06/27 10:00:53;;;;;;;5.88;3.42;;;36.90;60.50;;;;;;5021405;28;20037;-48
2022/06/27 10:03:19;;;;;;;4.32;3.15;;;37.50;60.20;;;;;;5026117;28;20017;-48
2022/06/27 10:05:45;;;;;;;3.53;3.22;;;38.20;58.90;;;;;;5018350;28;20060;-48
2022/06/27 10:08:12;;;;;;;5.90;3.60;;;38.00;58.60;;;;;;5019141;28;20029;-48
2022/06/27 10:11:04;;;;;;;7.28;3.90;;;37.50;59.30;;;;;;5027546;28;20031;-47
2022/06/27 10:13:30;;;;;;;4.15;3.75;;;36.20;61.40;;;;;;5026768;28;20018;-48
2022/06/27 10:15:58;;;;;;;5.78;3.88;;;35.40;61.80;;;;;;5018012;28;20018;-47
2022/06/27 10:18:23;;;;;;;4.95;4.47;;;35.80;63.30;;;;;;5017051;28;20079;-48
2022/06/27 10:20:51;;;;;;;6.13;4.18;;;36.30;62.40;;;;;;5017238;28;20014;-47
2022/06/27 10:23:19;;;;;;;6.72;4.43;;;35.10;61.50;;;;;;5019064;28;20360;-49
2022/06/27 10:25:45;;;;;;;4.45;4.05;;;34.70;61.80;;;;;;5025055;28;20030;-48
2022/06/27 10:28:14;;;;;;;4.60;3.85;;;34.30;63.80;;;;;;5026317;28;20538;-48
2022/06/27 10:30:48;;;;;;;3.83;3.47;;;34.90;62.70;;;;;;5016673;28;20030;-50
2022/06/27 10:33:25;;;;;;;3.92;3.53;;;35.40;63.10;;;;;;5027774;28;20091;-47
2022/06/27 10:36:02;;;;;;;3.65;3.30;;;35.60;60.20;;;;;;5051997;28;20053;-47
2022/06/27 10:38:29;;;;;;;4.13;3.15;;;36.10;60.80;;;;;;5031004;28;20413;-50
2022/06/27 10:40:57;;;;;;;3.92;3.63;;;35.60;60.80;;;;;;5018779;28;20470;-48
2022/06/27 10:43:43;;;;;;;3.67;3.38;;;34.70;61.70;;;;;;5019355;28;20030;-49
2022/06/27 10:46:28;;;;;;;3.95;3.60;;;33.90;61.70;;;;;;5018292;28;20029;-48
2022/06/27 10:48:56;;;;;;;4.15;3.75;;;33.30;62.80;;;;;;5012440;28;20037;-49
2022/06/27 10:51:24;;;;;;;4.18;3.72;;;32.40;64.80;;;;;;5015708;28;20100;-50
2022/06/27 10:53:51;;;;;;;3.60;3.30;;;31.80;67.00;;;;;;5018882;28;20498;-48
2022/06/27 10:56:36;;;;;;;4.30;3.88;;;31.40;66.20;;;;;;5020487;28;20025;-50
2022/06/27 10:59:04;;;;;;;3.85;3.50;;;30.70;68.00;;;;;;5023704;28;20458;-48
2022/06/27 11:01:31;;;;;;;4.10;3.72;;;30.30;68.90;;;;;;5020980;28;20566;-48
2022/06/27 11:03:58;;;;;;;5.60;4.53;;;29.70;70.30;;;;;;5040226;28;20033;-48
2022/06/27 11:06:24;;;;;;;4.53;3.80;;;29.30;71.80;;;;;;5031853;28;20668;-48
2022/06/27 11:08:52;;;;;;;4.80;3.58;;;29.00;72.30;;;;;;5036345;28;20128;-48
2022/06/27 11:11:23;;;;;;;4.07;3.67;;;29.10;72.40;;;;;;5034137;28;20126;-48
2022/06/27 11:13:53;;;;;;;3.92;3.58;;;29.30;72.00;;;;;;5019405;28;20514;-48
2022/06/27 11:16:22;;;;;;;4.15;3.80;;;29.50;72.60;;;;;;5020418;28;20119;-49
2022/06/27 11:18:53;;;;;;;4.85;3.85;;;30.10;72.70;;;;;;5022785;28;20037;-47
2022/06/27 11:21:20;;;;;;;4.28;3.88;;;30.10;71.60;;;;;;5035747;28;20036;-49
2022/06/27 11:23:59;;;;;;;7.03;4.00;;;30.60;71.80;;;;;;5019366;28;20108;-48
2022/06/27 11:26:27;;;;;;;5.23;3.27;;;31.40;69.70;;;;;;5027285;28;20026;-49
2022/06/27 11:34:24;;;;;;;3.63;3.33;;;34.70;61.60;;;;;;5020531;28;20025;-49
2022/06/27 11:36:51;;;;;;;5.25;3.30;;;34.30;63.00;;;;;;5024109;28;20132;-48
2022/06/27 11:39:26;;;;;;;4.30;3.88;;;34.00;63.00;;;;;;5034758;28;20021;-50
2022/06/27 11:41:59;;;;;;;3.33;3.05;;;33.90;63.80;;;;;;5019946;28;20091;-48
2022/06/27 11:44:26;;;;;;;4.47;2.80;;;33.50;62.60;;;;;;5018427;28;20046;-48
2022/06/27 11:46:53;;;;;;;5.07;3.28;;;33.10;63.70;;;;;;5019565;28;20485;-48
2022/06/27 11:49:39;;;;;;;3.25;2.80;;;32.60;63.90;;;;;;5001864;28;20033;-48
2022/06/27 11:52:09;;;;;;;4.78;2.92;;;32.40;65.40;;;;;;5021019;28;20032;-50
2022/06/27 11:54:46;;;;;;;3.60;3.35;;;32.30;65.20;;;;;;5020060;28;20124;-47
2022/06/27 11:57:26;;;;;;;6.10;3.10;;;32.40;66.10;;;;;;5026441;28;20018;-48
2022/06/27 11:59:54;;;;;;;3.63;3.33;;;32.30;64.80;;;;;;5032541;28;20038;-50
2022/06/27 12:02:35;;;;;;;3.60;3.30;;;32.00;64.80;;;;;;5018785;28;20070;-47
2022/06/27 12:05:03;;;;;;;4.30;3.38;;;31.70;66.00;;;;;;5020092;28;20030;-48
2022/06/27 12:07:29;;;;;;;3.97;3.53;;;31.30;66.10;;;;;;5026457;28;20451;-48
2022/06/27 12:09:55;;;;;;;3.83;3.45;;;30.90;67.10;;;;;;5031833;28;20053;-51
2022/06/27 12:12:26;;;;;;;4.10;3.70;;;30.10;68.80;;;;;;5019679;28;20025;-48
2022/06/27 12:14:53;;;;;;;8.35;4.03;;;29.70;70.80;;;;;;5038279;28;20475;-51
2022/06/27 12:17:20;;;;;;;3.75;3.47;;;29.50;71.20;;;;;;5041425;28;20391;-48
2022/06/27 12:19:46;;;;;;;4.47;3.72;;;29.20;71.50;;;;;;5032863;28;20029;-50
2022/06/27 12:22:18;;;;;;;4.07;3.65;;;29.00;72.20;;;;;;5035884;28;20379;-48
2022/06/27 12:24:45;;;;;;;4.38;3.85;;;28.90;72.10;;;;;;5029542;28;20053;-47
2022/06/27 12:27:11;;;;;;;4.43;3.70;;;28.80;72.40;;;;;;5037097;28;20060;-47
2022/06/27 12:29:36;;;;;;;4.60;4.20;;;28.60;74.10;;;;;;5030927;28;20029;-49
2022/06/27 12:32:02;;;;;;;4.80;4.03;;;28.60;74.90;;;;;;5041963;28;20017;-48
2022/06/27 12:34:30;;;;;;;4.55;4.15;;;28.50;74.70;;;;;;5035378;28;20025;-50
2022/06/27 12:36:55;;;;;;;4.53;4.13;;;28.70;76.50;;;;;;5021900;28;20017;-48
2022/06/27 12:39:23;;;;;;;7.05;4.25;;;29.20;74.40;;;;;;5025722;28;20314;-48
2022/06/27 12:41:50;;;;;;;4.68;4.25;;;29.40;76.30;;;;;;5024128;28;20184;-48
2022/06/27 12:44:15;;;;;;;7.65;4.47;;;29.40;74.00;;;;;;5017384;28;20104;-48
2022/06/27 12:46:41;;;;;;;7.20;4.55;;;29.70;74.90;;;;;;5019949;28;20100;-47
2022/06/27 12:49:06;;;;;;;5.05;4.40;;;29.50;74.30;;;;;;5019184;28;20021;-48
2022/06/27 12:51:32;;;;;;;5.20;4.10;;;29.50;73.90;;;;;;5020654;28;20096;-47